createdAt,value
2022-11-03T00:02:08.318Z,21.88
2022-11-03T00:04:35.713Z,22.02
2022-11-03T00:07:03.867Z,21.58
2022-11-03T00:09:31.562Z,21.65
2022-11-03T00:12:00.155Z,23.50
2022-11-03T00:14:28.133Z,24.80
2022-11-03T00:16:57.686Z,23.27
2022-11-03T00:19:24.989Z,21.30
2022-11-03T00:21:54.156Z,22.10
2022-11-03T00:24:21.596Z,21.98
2022-11-03T00:26:49.303Z,24.05
2022-11-03T00:29:18.158Z,20.55
2022-11-03T00:31:47.666Z,20.98
2022-11-03T00:34:15.352Z,19.58
2022-11-03T00:36:44.620Z,20.05
2022-11-03T00:39:12.928Z,19.98
2022-11-03T00:41:42.328Z,21.20
2022-11-03T00:44:10.779Z,21.63
2022-11-03T00:46:41.403Z,22.15
2022-11-03T00:49:08.657Z,23.10
2022-11-03T00:51:38.497Z,22.38
2022-11-03T00:54:07.428Z,24.42
2022-11-03T00:56:40.146Z,21.27
2022-11-03T00:59:10.573Z,20.05
2022-11-03T01:01:45.781Z,18.88
2022-11-03T01:04:36.242Z,19.02
2022-11-03T01:07:09.612Z,19.33
2022-11-03T01:09:39.252Z,19.58
2022-11-03T01:12:13.547Z,21.27
2022-11-03T01:14:44.089Z,21.15
2022-11-03T01:17:18.088Z,20.70
2022-11-03T01:19:48.491Z,22.70
2022-11-03T01:22:17.382Z,26.00
2022-11-03T01:24:45.333Z,22.17
2022-11-03T01:27:16.977Z,22.25
2022-11-03T01:29:44.489Z,22.25
2022-11-03T01:32:12.887Z,19.60
2022-11-03T01:34:41.881Z,20.77
2022-11-03T01:37:11.767Z,20.05
2022-11-03T01:39:39.146Z,17.60
2022-11-03T01:42:12.743Z,16.73
2022-11-03T01:44:47.787Z,16.52
2022-11-03T01:47:43.991Z,15.27
2022-11-03T01:50:16.320Z,15.80
2022-11-03T01:52:59.081Z,14.82
2022-11-03T01:55:29.077Z,14.48
2022-11-03T01:58:03.615Z,14.68
2022-11-03T02:00:33.620Z,16.77
2022-11-03T02:03:05.104Z,15.80
2022-11-03T02:05:35.256Z,16.65
2022-11-03T02:10:39.220Z,16.85
2022-11-03T02:13:18.776Z,16.45
2022-11-03T02:15:52.791Z,15.85
2022-11-03T02:18:25.497Z,17.27
2022-11-03T02:21:06.870Z,16.20
2022-11-03T02:23:46.588Z,16.27
2022-11-03T02:26:19.535Z,16.38
2022-11-03T02:28:47.127Z,16.77
2022-11-03T02:31:36.611Z,17.60
2022-11-03T02:34:23.826Z,16.83
2022-11-03T02:37:17.710Z,17.02
2022-11-03T02:39:49.352Z,16.17
2022-11-03T02:42:17.960Z,16.85
2022-11-03T02:44:46.980Z,17.30
2022-11-03T02:47:15.243Z,19.17
2022-11-03T07:46:17.358Z,16.20
2022-11-03T07:48:46.759Z,15.10
2022-11-03T07:51:26.477Z,15.70
2022-11-03T07:53:56.889Z,16.65
2022-11-03T07:56:34.054Z,17.10
2022-11-03T07:59:13.479Z,15.90
2022-11-03T08:01:44.165Z,16.02
2022-11-03T08:04:16.724Z,16.02
2022-11-03T08:06:44.282Z,15.63
2022-11-03T08:09:11.638Z,15.63
2022-11-03T08:11:39.113Z,16.50
2022-11-03T08:14:06.483Z,17.23
2022-11-03T08:16:34.872Z,16.98
2022-11-03T08:19:02.608Z,15.70
2022-11-03T08:21:30.252Z,16.23
2022-11-03T08:23:57.576Z,15.57
2022-11-03T08:26:25.134Z,16.67
2022-11-03T08:28:52.584Z,17.10
2022-11-03T08:31:19.809Z,16.40
2022-11-03T08:33:47.098Z,17.05
2022-11-03T08:36:14.862Z,16.33
2022-11-03T08:38:42.424Z,17.80
2022-11-03T08:41:09.631Z,17.40
2022-11-03T08:43:37.847Z,17.20
2022-11-03T08:46:13.002Z,17.73
2022-11-03T08:48:45.549Z,17.40
2022-11-03T08:51:14.188Z,17.08
2022-11-03T08:53:43.494Z,17.02
2022-11-03T08:56:14.230Z,17.98
2022-11-03T08:58:44.133Z,18.15
2022-11-03T09:01:11.859Z,20.23
2022-11-03T09:03:39.740Z,18.05
2022-11-03T09:06:07.784Z,18.27
2022-11-03T09:11:22.840Z,18.05
2022-11-03T09:13:50.118Z,18.60
2022-11-03T09:16:17.811Z,16.98
2022-11-03T09:18:48.439Z,17.88
2022-11-03T09:21:18.900Z,16.75
2022-11-03T09:23:46.558Z,18.08
2022-11-03T09:26:14.210Z,17.85
2022-11-03T09:28:41.744Z,16.77
2022-11-03T09:31:09.208Z,17.63
2022-11-03T09:33:38.156Z,17.15
2022-11-03T09:36:06.156Z,16.60
2022-11-03T09:38:33.462Z,16.38
2022-11-03T09:41:01.046Z,17.20
2022-11-03T09:43:28.621Z,17.15
2022-11-03T09:45:56.883Z,16.45
2022-11-03T09:48:24.502Z,17.33
2022-11-03T09:50:54.059Z,17.35
2022-11-03T09:53:21.526Z,17.17
2022-11-03T09:55:49.077Z,18.95
2022-11-03T09:58:17.841Z,18.40
2022-11-03T10:00:46.079Z,19.13
2022-11-03T10:03:15.711Z,18.98
2022-11-03T10:05:45.158Z,18.17
2022-11-03T10:08:27.811Z,22.48
2022-11-03T10:10:55.915Z,18.73
2022-11-03T10:13:35.251Z,18.83
2022-11-03T10:16:05.707Z,19.98
2022-11-03T10:18:34.657Z,19.80
2022-11-03T10:21:26.170Z,19.15
2022-11-03T10:23:53.678Z,18.05
2022-11-03T10:26:22.237Z,15.55
2022-11-03T10:29:00.998Z,15.93
2022-11-03T10:31:42.024Z,12.23
2022-11-03T10:34:46.337Z,11.82
2022-11-03T10:37:20.776Z,10.55
2022-11-03T10:39:49.939Z,10.95
2022-11-03T10:42:29.181Z,9.55
2022-11-03T10:45:17.576Z,9.82
2022-11-03T10:47:45.160Z,7.40
2022-11-03T10:50:23.849Z,10.63
2022-11-03T10:52:51.996Z,7.72
2022-11-03T10:55:24.870Z,16.90
2022-11-03T10:57:55.823Z,16.75
2022-11-03T11:00:24.346Z,16.55
2022-11-03T11:02:58.859Z,16.08
2022-11-03T11:05:26.385Z,15.95
2022-11-03T11:07:54.948Z,14.60
2022-11-03T11:10:27.053Z,14.65
2022-11-03T11:13:24.466Z,14.27
2022-11-03T11:15:58.976Z,14.23
2022-11-03T11:18:32.940Z,14.70
2022-11-03T11:21:18.161Z,14.43
2022-11-03T11:23:46.768Z,15.35
2022-11-03T11:26:25.013Z,16.83
2022-11-03T11:29:11.262Z,17.27
2022-11-03T11:31:56.983Z,16.67
2022-11-03T11:34:36.473Z,19.95
2022-11-03T11:37:10.866Z,17.73
2022-11-03T11:39:44.277Z,17.45
2022-11-03T11:42:20.175Z,22.50
2022-11-03T11:44:52.527Z,16.23
2022-11-03T11:47:41.274Z,13.93
2022-11-03T11:50:11.550Z,11.93
2022-11-03T11:52:50.220Z,11.60
2022-11-03T11:55:49.198Z,10.60
2022-11-03T11:58:23.333Z,8.43
2022-11-03T12:00:54.545Z,8.70
2022-11-03T12:03:29.513Z,9.68
2022-11-03T12:05:56.961Z,9.70
2022-11-03T12:08:31.289Z,10.20
2022-11-03T12:11:03.962Z,9.77
2022-11-03T12:13:49.387Z,9.05
2022-11-03T12:16:33.570Z,9.18
2022-11-03T12:19:32.727Z,8.95
2022-11-03T12:22:00.064Z,11.40
2022-11-03T12:24:36.326Z,9.05
2022-11-03T12:27:17.638Z,10.18
2022-11-03T12:29:45.739Z,11.02
2022-11-03T12:32:26.076Z,13.20
2022-11-03T12:35:01.611Z,12.15
2022-11-03T12:37:29.178Z,13.23
2022-11-03T12:39:56.629Z,12.85
2022-11-03T12:42:25.562Z,11.40
2022-11-03T12:44:56.726Z,11.38
2022-11-03T12:47:24.054Z,12.90
2022-11-03T12:49:51.366Z,12.68
2022-11-03T12:52:19.494Z,11.80
2022-11-03T12:54:46.736Z,10.52
2022-11-03T12:57:14.660Z,9.90
2022-11-03T12:59:42.092Z,10.25
2022-11-03T13:02:11.022Z,10.45
2022-11-03T13:04:39.397Z,10.80
2022-11-03T13:07:07.232Z,10.48
2022-11-03T13:09:36.039Z,9.13
2022-11-03T13:12:22.303Z,9.73
2022-11-03T13:14:49.596Z,9.05
2022-11-03T13:17:17.389Z,9.25
2022-11-03T13:19:45.159Z,9.15
2022-11-03T13:22:12.715Z,9.25
2022-11-03T13:24:41.065Z,11.77
2022-11-03T13:27:08.834Z,9.25
2022-11-03T13:29:36.402Z,8.25
2022-11-03T13:32:05.089Z,8.35
2022-11-03T13:34:32.492Z,8.30
2022-11-03T13:36:59.785Z,8.32
2022-11-03T13:39:26.983Z,15.60
2022-11-03T13:41:54.714Z,15.20
2022-11-03T13:44:21.959Z,12.00
2022-11-03T13:46:49.392Z,8.40
2022-11-03T13:49:59.338Z,8.80
2022-11-03T13:52:04.585Z,8.30
2022-11-03T14:00:09.215Z,26.58
2022-11-03T14:05:25.698Z,13.93
2022-11-03T14:07:52.949Z,11.45
2022-11-03T14:10:21.886Z,15.82
2022-11-03T14:12:50.713Z,10.80
2022-11-03T14:15:19.111Z,12.15
2022-11-03T14:17:46.737Z,17.70
2022-11-03T14:20:15.200Z,13.68
2022-11-03T14:22:43.539Z,14.77
2022-11-03T14:25:11.027Z,14.05
2022-11-03T14:27:38.840Z,15.48
2022-11-03T14:30:07.107Z,9.57
2022-11-03T14:32:34.520Z,8.48
2022-11-03T14:35:03.002Z,8.35
2022-11-03T14:37:30.384Z,7.63
2022-11-03T14:40:00.933Z,7.32
2022-11-03T14:42:28.451Z,8.05
2022-11-03T14:44:57.362Z,8.23
2022-11-03T14:47:25.702Z,13.52
2022-11-03T14:49:53.812Z,18.13
2022-11-03T14:52:21.702Z,11.77
2022-11-03T14:54:51.068Z,26.85
2022-11-03T14:57:18.434Z,15.85
2022-11-03T14:59:53.001Z,11.52
2022-11-03T15:02:22.118Z,10.35
2022-11-03T15:04:49.608Z,11.70
2022-11-03T15:07:16.887Z,11.93
2022-11-03T15:09:44.755Z,13.00
2022-11-03T15:12:12.860Z,12.48
2022-11-03T15:14:40.072Z,13.05
2022-11-03T15:17:09.004Z,14.30
2022-11-03T15:19:37.422Z,13.52
2022-11-03T15:22:04.935Z,13.45
2022-11-03T15:27:21.413Z,20.58
2022-11-03T15:29:48.644Z,17.52
2022-11-03T15:32:18.387Z,18.20
2022-11-03T15:34:46.264Z,18.30
2022-11-03T15:37:13.560Z,16.60
2022-11-03T15:39:41.582Z,16.08
2022-11-03T15:42:08.983Z,15.48
2022-11-03T15:44:36.927Z,14.88
2022-11-03T15:47:04.143Z,13.55
2022-11-03T15:49:31.305Z,15.13
2022-11-03T15:51:59.048Z,17.38
2022-11-03T15:54:26.468Z,18.02
2022-11-03T15:56:53.730Z,15.30
2022-11-03T15:59:21.043Z,16.95
2022-11-03T16:01:48.756Z,17.33
2022-11-03T16:04:16.353Z,16.80
2022-11-03T16:07:13.481Z,18.02
2022-11-03T16:09:33.027Z,18.42
2022-11-03T16:12:00.941Z,21.15
2022-11-03T16:14:28.285Z,17.42
2022-11-03T16:16:56.929Z,14.90
2022-11-03T16:19:24.689Z,16.98
2022-11-03T16:21:52.772Z,16.45
2022-11-03T16:24:20.006Z,15.57
2022-11-03T16:26:47.736Z,16.42
2022-11-03T16:29:15.258Z,17.08
2022-11-03T16:31:44.035Z,22.50
2022-11-03T16:34:11.310Z,17.05
2022-11-03T16:36:42.508Z,14.05
2022-11-03T16:39:11.406Z,12.98
2022-11-03T16:41:41.211Z,12.40
2022-11-03T16:44:08.696Z,13.05
2022-11-03T16:46:37.663Z,14.98
2022-11-03T16:49:05.242Z,16.58
2022-11-03T16:51:33.389Z,20.58
2022-11-03T16:54:00.690Z,19.60
2022-11-03T16:56:29.563Z,16.58
2022-11-03T16:58:56.873Z,15.43
2022-11-03T17:01:24.641Z,23.10
2022-11-03T17:03:52.574Z,17.63
2022-11-03T17:06:19.927Z,15.60
2022-11-03T17:08:53.535Z,19.45
2022-11-03T17:11:39.609Z,14.95
2022-11-03T17:14:13.292Z,16.95
2022-11-03T17:16:48.597Z,18.00
2022-11-03T17:19:17.474Z,17.83
2022-11-03T17:21:46.658Z,20.05
2022-11-03T17:24:14.504Z,21.17
2022-11-03T17:27:21.004Z,19.92
2022-11-03T17:29:51.006Z,20.17
2022-11-03T17:32:31.992Z,20.42
2022-11-03T17:34:59.404Z,18.05
2022-11-03T17:37:27.140Z,17.95
2022-11-03T17:39:55.652Z,17.30
2022-11-03T17:42:25.244Z,18.93
2022-11-03T17:44:59.383Z,18.15
2022-11-03T17:47:27.127Z,17.55
2022-11-03T17:49:54.470Z,16.40
2022-11-03T17:52:28.274Z,15.23
2022-11-03T17:54:57.656Z,16.88
2022-11-03T17:57:25.793Z,19.80
2022-11-03T17:59:54.838Z,23.33
2022-11-03T18:02:26.660Z,21.77
2022-11-03T18:05:20.411Z,19.63
2022-11-03T18:07:52.558Z,16.75
2022-11-03T18:10:27.622Z,16.73
2022-11-03T18:13:16.627Z,17.92
2022-11-03T18:15:54.606Z,16.60
2022-11-03T18:18:35.637Z,18.65
2022-11-03T18:21:03.332Z,15.68
2022-11-03T18:23:32.943Z,15.60
2022-11-03T18:26:06.285Z,14.50
2022-11-03T18:28:33.948Z,14.90
2022-11-03T18:31:01.163Z,16.85
2022-11-03T18:33:32.638Z,16.23
2022-11-03T18:36:02.431Z,18.80
2022-11-03T18:38:30.530Z,14.95
2022-11-03T18:40:58.803Z,13.38
2022-11-03T18:43:26.480Z,15.80
2022-11-03T18:45:55.592Z,13.68
2022-11-03T18:48:24.074Z,12.32
2022-11-03T18:50:56.114Z,11.65
2022-11-03T18:53:28.189Z,11.18
2022-11-03T18:56:00.029Z,11.57
2022-11-03T18:58:27.471Z,13.50
2022-11-03T19:00:56.262Z,16.58
2022-11-03T19:03:23.694Z,17.98
2022-11-03T19:05:52.581Z,21.58
2022-11-03T19:08:33.251Z,17.52
2022-11-03T19:11:11.198Z,14.93
2022-11-03T19:13:41.661Z,13.82
2022-11-03T19:16:25.506Z,13.75
2022-11-03T19:18:55.233Z,14.25
2022-11-03T19:21:24.035Z,12.95
2022-11-03T19:23:57.999Z,14.23
2022-11-03T19:26:29.426Z,12.48
2022-11-03T19:29:00.600Z,13.48
2022-11-03T19:31:35.203Z,13.48
2022-11-03T19:34:03.298Z,14.23
2022-11-03T19:36:32.103Z,18.83
2022-11-03T19:39:00.277Z,17.63
2022-11-03T19:41:47.016Z,17.23
2022-11-03T19:44:18.784Z,15.20
2022-11-03T19:46:46.022Z,16.80
2022-11-03T19:49:15.009Z,15.82
2022-11-03T19:51:42.431Z,14.45
2022-11-03T19:54:21.502Z,15.25
2022-11-03T19:56:49.659Z,14.88
2022-11-03T19:59:17.504Z,15.18
2022-11-03T20:01:47.103Z,13.43
2022-11-03T20:04:17.044Z,14.68
2022-11-03T20:06:44.877Z,14.52
2022-11-03T20:09:17.080Z,15.18
2022-11-03T20:11:47.089Z,14.95
2022-11-03T23:04:58.279Z,22.55
2022-11-03T23:07:31.180Z,20.95
2022-11-03T23:10:06.400Z,19.90
2022-11-03T23:12:36.212Z,20.10
2022-11-03T23:15:22.615Z,20.20
2022-11-03T23:18:13.502Z,20.58
2022-11-03T23:21:02.760Z,21.20
2022-11-03T23:23:48.637Z,20.67
2022-11-03T23:26:16.601Z,20.17
2022-11-03T23:28:45.156Z,20.95
2022-11-03T23:31:12.920Z,20.92
2022-11-03T23:33:40.217Z,21.02
2022-11-03T23:36:10.033Z,21.00
2022-11-03T23:38:39.529Z,23.13
2022-11-03T23:41:10.057Z,23.38
2022-11-03T23:43:38.656Z,24.90
2022-11-03T23:46:27.519Z,25.77
2022-11-03T23:48:58.235Z,25.55
2022-11-03T23:51:27.336Z,24.60
2022-11-03T23:54:05.560Z,21.50
2022-11-03T23:56:56.788Z,21.13
2022-11-03T23:59:27.858Z,18.15
